sensor_id;sensor_type;location;lat;lon;timestamp;pressure;altitude;pressure_sealevel;temperature;humidity
8637;BME280;4356;49.068;8.658;2022-07-24T00:01:08;100168.38;;;29.87;38.84
8637;BME280;4356;49.068;8.658;2022-07-24T00:03:34;100168.38;;;29.87;38.63
8637;BME280;4356;49.068;8.658;2022-07-24T00:05:59;100172.78;;;29.88;39.05
8637;BME280;4356;49.068;8.658;2022-07-24T00:08:25;100176.44;;;29.83;38.97
8637;BME280;4356;49.068;8.658;2022-07-24T00:10:53;100176.13;;;29.85;38.70
8637;BME280;4356;49.068;8.658;2022-07-24T00:13:18;100181.69;;;29.85;38.92
8637;BME280;4356;49.068;8.658;2022-07-24T00:15:44;100173.94;;;29.82;38.53
8637;BME280;4356;49.068;8.658;2022-07-24T00:18:09;100171.19;;;29.82;38.95
8637;BME280;4356;49.068;8.658;2022-07-24T00:20:35;100170.66;;;29.80;38.69
8637;BME280;4356;49.068;8.658;2022-07-24T00:23:00;100173.13;;;29.81;39.03
8637;BME280;4356;49.068;8.658;2022-07-24T00:25:26;100175.34;;;29.79;38.61
8637;BME280;4356;49.068;8.658;2022-07-24T00:27:51;100174.50;;;29.79;39.40
8637;BME280;4356;49.068;8.658;2022-07-24T00:30:16;100164.31;;;29.74;38.70
8637;BME280;4356;49.068;8.658;2022-07-24T00:32:42;100167.38;;;29.73;38.71
8637;BME280;4356;49.068;8.658;2022-07-24T00:35:07;100159.06;;;29.73;39.04
8637;BME280;4356;49.068;8.658;2022-07-24T00:37:33;100158.53;;;29.71;38.65
8637;BME280;4356;49.068;8.658;2022-07-24T00:39:58;100150.53;;;29.69;38.57
8637;BME280;4356;49.068;8.658;2022-07-24T00:42:24;100158.25;;;29.67;38.44
8637;BME280;4356;49.068;8.658;2022-07-24T00:44:49;100157.13;;;29.68;38.68
8637;BME280;4356;49.068;8.658;2022-07-24T00:47:15;100163.25;;;29.70;38.83
8637;BME280;4356;49.068;8.658;2022-07-24T00:49:40;100150.81;;;29.63;39.07
8637;BME280;4356;49.068;8.658;2022-07-24T00:52:06;100151.94;;;29.62;38.74
8637;BME280;4356;49.068;8.658;2022-07-24T00:54:31;100159.66;;;29.65;38.75
8637;BME280;4356;49.068;8.658;2022-07-24T00:56:57;100130.38;;;29.54;38.97
8637;BME280;4356;49.068;8.658;2022-07-24T00:59:22;100150.00;;;29.62;38.79
8637;BME280;4356;49.068;8.658;2022-07-24T01:01:49;100156.63;;;29.61;38.94
8637;BME280;4356;49.068;8.658;2022-07-24T01:04:14;100142.00;;;29.56;38.82
8637;BME280;4356;49.068;8.658;2022-07-24T01:06:41;100149.22;;;29.57;39.11
8637;BME280;4356;49.068;8.658;2022-07-24T01:09:07;100146.69;;;29.55;39.09
8637;BME280;4356;49.068;8.658;2022-07-24T01:11:33;100147.53;;;29.56;38.92
8637;BME280;4356;49.068;8.658;2022-07-24T01:13:58;100151.19;;;29.51;38.93
8637;BME280;4356;49.068;8.658;2022-07-24T01:16:24;100158.38;;;29.52;38.92
8637;BME280;4356;49.068;8.658;2022-07-24T01:18:50;100153.41;;;29.49;38.82
8637;BME280;4356;49.068;8.658;2022-07-24T01:21:15;100152.28;;;29.50;39.00
8637;BME280;4356;49.068;8.658;2022-07-24T01:23:41;100155.66;;;29.47;38.88
8637;BME280;4356;49.068;8.658;2022-07-24T01:26:07;100152.28;;;29.50;38.84
8637;BME280;4356;49.068;8.658;2022-07-24T01:28:33;100149.56;;;29.45;38.89
8637;BME280;4356;49.068;8.658;2022-07-24T01:30:58;100151.50;;;29.45;39.07
8637;BME280;4356;49.068;8.658;2022-07-24T01:33:24;100152.34;;;29.45;38.88
8637;BME280;4356;49.068;8.658;2022-07-24T01:35:50;100144.31;;;29.44;38.81
8637;BME280;4356;49.068;8.658;2022-07-24T01:38:17;100151.50;;;29.45;38.83
8637;BME280;4356;49.068;8.658;2022-07-24T01:40:43;100152.09;;;29.42;38.92
8637;BME280;4356;49.068;8.658;2022-07-24T01:43:08;100151.78;;;29.43;38.92
8637;BME280;4356;49.068;8.658;2022-07-24T01:45:34;100147.13;;;29.38;38.73
8637;BME280;4356;49.068;8.658;2022-07-24T01:47:59;100144.06;;;29.40;39.15
8637;BME280;4356;49.068;8.658;2022-07-24T01:50:25;100143.53;;;29.38;38.97
8637;BME280;4356;49.068;8.658;2022-07-24T01:52:50;100133.56;;;29.37;38.69
8637;BME280;4356;49.068;8.658;2022-07-24T01:55:19;100145.47;;;29.37;38.83
8637;BME280;4356;49.068;8.658;2022-07-24T01:57:44;100143.56;;;29.33;38.90
8637;BME280;4356;49.068;8.658;2022-07-24T02:00:10;100141.34;;;29.35;39.11
8637;BME280;4356;49.068;8.658;2022-07-24T02:02:38;100147.16;;;29.33;38.97
8637;BME280;4356;49.068;8.658;2022-07-24T02:05:04;100147.16;;;29.33;38.80
8637;BME280;4356;49.068;8.658;2022-07-24T02:07:29;100149.38;;;29.31;38.55
8637;BME280;4356;49.068;8.658;2022-07-24T02:09:55;100147.72;;;29.30;38.80
8637;BME280;4356;49.068;8.658;2022-07-24T02:12:20;100145.84;;;29.26;38.83
8637;BME280;4356;49.068;8.658;2022-07-24T02:14:46;100148.63;;;29.26;38.70
8637;BME280;4356;49.068;8.658;2022-07-24T02:17:11;100138.09;;;29.23;38.68
8637;BME280;4356;49.068;8.658;2022-07-24T02:19:36;100146.09;;;29.24;38.68
8637;BME280;4356;49.068;8.658;2022-07-24T02:22:02;100157.19;;;29.24;38.72
8637;BME280;4356;49.068;8.658;2022-07-24T02:24:28;100153.59;;;29.24;38.76
8637;BME280;4356;49.068;8.658;2022-07-24T02:26:53;100155.00;;;29.21;38.85
8637;BME280;4356;49.068;8.658;2022-07-24T02:29:19;100162.75;;;29.19;38.99
8637;BME280;4356;49.068;8.658;2022-07-24T02:31:44;100156.38;;;29.19;38.95
8637;BME280;4356;49.068;8.658;2022-07-24T02:34:09;100153.38;;;29.15;38.64
8637;BME280;4356;49.068;8.658;2022-07-24T02:36:35;100157.50;;;29.18;39.09
8637;BME280;4356;49.068;8.658;2022-07-24T02:39:01;100156.41;;;29.14;39.04
8637;BME280;4356;49.068;8.658;2022-07-24T02:41:26;100162.78;;;29.14;38.68
8637;BME280;4356;49.068;8.658;2022-07-24T02:43:51;100146.50;;;29.03;38.75
8637;BME280;4356;49.068;8.658;2022-07-24T02:46:17;100158.91;;;29.10;38.66
8637;BME280;4356;49.068;8.658;2022-07-24T02:48:42;100179.69;;;29.13;38.97
8637;BME280;4356;49.068;8.658;2022-07-24T02:51:08;100170.84;;;29.11;38.77
8637;BME280;4356;49.068;8.658;2022-07-24T02:53:33;100161.41;;;29.07;38.71
8637;BME280;4356;49.068;8.658;2022-07-24T02:55:58;100168.34;;;29.09;38.90
8637;BME280;4356;49.068;8.658;2022-07-24T02:58:24;100163.63;;;29.05;38.70
8637;BME280;4356;49.068;8.658;2022-07-24T03:00:49;100158.69;;;29.02;38.91
8637;BME280;4356;49.068;8.658;2022-07-24T03:03:15;100165.84;;;29.03;38.91
8637;BME280;4356;49.068;8.658;2022-07-24T03:05:40;100159.28;;;28.99;38.73
8637;BME280;4356;49.068;8.658;2022-07-24T03:08:06;100177.47;;;29.05;39.05
8637;BME280;4356;49.068;8.658;2022-07-24T03:10:31;100176.94;;;29.03;38.78
8637;BME280;4356;49.068;8.658;2022-07-24T03:12:56;100165.59;;;28.99;38.70
8637;BME280;4356;49.068;8.658;2022-07-24T03:15:22;100168.38;;;28.99;38.91
8637;BME280;4356;49.068;8.658;2022-07-24T03:17:52;100173.63;;;29.01;38.80
8637;BME280;4356;49.068;8.658;2022-07-24T03:20:19;100184.69;;;29.01;38.90
8637;BME280;4356;49.068;8.658;2022-07-24T03:22:45;100172.00;;;28.95;38.71
8637;BME280;4356;49.068;8.658;2022-07-24T03:25:11;100177.53;;;28.95;38.85
8637;BME280;4356;49.068;8.658;2022-07-24T03:27:37;100172.84;;;28.90;38.78
8637;BME280;4356;49.068;8.658;2022-07-24T03:30:04;100176.16;;;28.92;38.87
8637;BME280;4356;49.068;8.658;2022-07-24T03:32:29;100173.13;;;28.89;38.96
8637;BME280;4356;49.068;8.658;2022-07-24T03:34:55;100176.44;;;28.91;38.81
8637;BME280;4356;49.068;8.658;2022-07-24T03:37:20;100178.38;;;28.90;38.85
8637;BME280;4356;49.068;8.658;2022-07-24T03:39:46;100170.66;;;28.87;38.85
8637;BME280;4356;49.068;8.658;2022-07-24T03:42:11;100177.28;;;28.86;38.88
8637;BME280;4356;49.068;8.658;2022-07-24T03:44:36;100170.41;;;28.84;38.82
8637;BME280;4356;49.068;8.658;2022-07-24T03:47:02;100182.81;;;28.86;38.86
8637;BME280;4356;49.068;8.658;2022-07-24T03:49:27;100183.09;;;28.85;38.54
8637;BME280;4356;49.068;8.658;2022-07-24T03:51:53;100177.31;;;28.81;38.79
8637;BME280;4356;49.068;8.658;2022-07-24T03:54:18;100181.47;;;28.84;38.67
8637;BME280;4356;49.068;8.658;2022-07-24T03:56:44;100183.13;;;28.80;38.82
8637;BME280;4356;49.068;8.658;2022-07-24T03:59:09;100187.53;;;28.81;38.93
8637;BME280;4356;49.068;8.658;2022-07-24T04:01:34;100187.03;;;28.79;38.84
8637;BME280;4356;49.068;8.658;2022-07-24T04:04:00;100189.78;;;28.79;38.82
8637;BME280;4356;49.068;8.658;2022-07-24T04:06:30;100190.88;;;28.78;38.90
8637;BME280;4356;49.068;8.658;2022-07-24T04:08:57;100187.03;;;28.74;38.83
8637;BME280;4356;49.068;8.658;2022-07-24T04:11:22;100185.66;;;28.76;38.76
8637;BME280;4356;49.068;8.658;2022-07-24T04:13:48;100194.22;;;28.75;38.80
8637;BME280;4356;49.068;8.658;2022-07-24T04:16:13;100208.06;;;28.75;39.08
8637;BME280;4356;49.068;8.658;2022-07-24T04:18:39;100193.13;;;28.71;39.10
8637;BME280;4356;49.068;8.658;2022-07-24T04:21:04;100202.56;;;28.70;38.96
8637;BME280;4356;49.068;8.658;2022-07-24T04:23:29;100197.81;;;28.70;38.97
8637;BME280;4356;49.068;8.658;2022-07-24T04:25:55;100195.09;;;28.65;39.05
8637;BME280;4356;49.068;8.658;2022-07-24T04:28:20;100212.50;;;28.71;38.95
8637;BME280;4356;49.068;8.658;2022-07-24T04:30:46;100202.28;;;28.66;38.91
8637;BME280;4356;49.068;8.658;2022-07-24T04:33:11;100192.63;;;28.59;39.19
8637;BME280;4356;49.068;8.658;2022-07-24T04:35:37;100204.75;;;28.63;39.02
8637;BME280;4356;49.068;8.658;2022-07-24T04:38:02;100205.31;;;28.65;38.92
8637;BME280;4356;49.068;8.658;2022-07-24T04:40:27;100200.34;;;28.62;38.97
8637;BME280;4356;49.068;8.658;2022-07-24T04:42:53;100216.94;;;28.67;39.15
8637;BME280;4356;49.068;8.658;2022-07-24T04:45:18;100204.25;;;28.61;39.04
8637;BME280;4356;49.068;8.658;2022-07-24T04:47:44;100215.81;;;28.63;39.03
8637;BME280;4356;49.068;8.658;2022-07-24T04:50:09;100215.81;;;28.63;39.19
8637;BME280;4356;49.068;8.658;2022-07-24T04:52:35;100223.88;;;28.64;39.19
8637;BME280;4356;49.068;8.658;2022-07-24T04:55:00;100219.44;;;28.58;39.23
8637;BME280;4356;49.068;8.658;2022-07-24T04:57:25;100218.31;;;28.59;39.32
8637;BME280;4356;49.068;8.658;2022-07-24T04:59:51;100213.09;;;28.58;39.37
8637;BME280;4356;49.068;8.658;2022-07-24T05:02:16;100222.47;;;28.62;39.17
8637;BME280;4356;49.068;8.658;2022-07-24T05:04:42;100218.63;;;28.58;39.15
8637;BME280;4356;49.068;8.658;2022-07-24T05:07:07;100207.28;;;28.54;39.32
8637;BME280;4356;49.068;8.658;2022-07-24T05:09:32;100216.97;;;28.57;39.30
8637;BME280;4356;49.068;8.658;2022-07-24T05:11:58;100215.56;;;28.59;39.35
8637;BME280;4356;49.068;8.658;2022-07-24T05:14:23;100202.88;;;28.53;39.35
8637;BME280;4356;49.068;8.658;2022-07-24T05:16:49;100215.84;;;28.58;39.49
8637;BME280;4356;49.068;8.658;2022-07-24T05:19:14;100205.91;;;28.52;39.55
8637;BME280;4356;49.068;8.658;2022-07-24T05:21:39;100211.44;;;28.57;39.63
8637;BME280;4356;49.068;8.658;2022-07-24T05:24:05;100215.31;;;28.56;39.81
8637;BME280;4356;49.068;8.658;2022-07-24T05:26:31;100217.25;;;28.55;39.76
8637;BME280;4356;49.068;8.658;2022-07-24T05:29:02;100223.06;;;28.59;39.82
8637;BME280;4356;49.068;8.658;2022-07-24T05:31:28;100221.09;;;28.59;39.80
8637;BME280;4356;49.068;8.658;2022-07-24T05:33:54;100212.81;;;28.54;39.68
8637;BME280;4356;49.068;8.658;2022-07-24T05:36:20;100227.47;;;28.60;39.82
8637;BME280;4356;49.068;8.658;2022-07-24T05:38:45;100211.72;;;28.55;39.91
8637;BME280;4356;49.068;8.658;2022-07-24T05:41:11;100218.63;;;28.58;40.09
8637;BME280;4356;49.068;8.658;2022-07-24T05:43:37;100213.38;;;28.56;39.96
8637;BME280;4356;49.068;8.658;2022-07-24T05:46:04;100218.63;;;28.58;39.91
8637;BME280;4356;49.068;8.658;2022-07-24T05:48:30;100223.84;;;28.59;39.78
8637;BME280;4356;49.068;8.658;2022-07-24T05:50:55;100225.81;;;28.59;39.99
8637;BME280;4356;49.068;8.658;2022-07-24T05:53:22;100211.44;;;28.57;40.16
8637;BME280;4356;49.068;8.658;2022-07-24T05:55:48;100217.53;;;28.59;40.04
8637;BME280;4356;49.068;8.658;2022-07-24T05:58:13;100214.75;;;28.59;39.78
8637;BME280;4356;49.068;8.658;2022-07-24T06:00:39;100214.22;;;28.57;40.05
8637;BME280;4356;49.068;8.658;2022-07-24T06:03:04;100224.13;;;28.63;39.58
8637;BME280;4356;49.068;8.658;2022-07-24T06:05:29;100218.59;;;28.63;39.70
8637;BME280;4356;49.068;8.658;2022-07-24T06:07:55;100221.66;;;28.61;39.78
8637;BME280;4356;49.068;8.658;2022-07-24T06:10:20;100219.44;;;28.63;39.80
8637;BME280;4356;49.068;8.658;2022-07-24T06:12:46;100209.22;;;28.64;39.63
8637;BME280;4356;49.068;8.658;2022-07-24T06:15:11;100218.59;;;28.68;39.64
8637;BME280;4356;49.068;8.658;2022-07-24T06:17:37;100216.13;;;28.66;39.70
8637;BME280;4356;49.068;8.658;2022-07-24T06:20:05;100220.50;;;28.72;39.58
8637;BME280;4356;49.068;8.658;2022-07-24T06:22:30;100207.25;;;28.69;39.48
8637;BME280;4356;49.068;8.658;2022-07-24T06:24:56;100197.84;;;28.65;39.54
8637;BME280;4356;49.068;8.658;2022-07-24T06:27:21;100208.59;;;28.72;39.63
8637;BME280;4356;49.068;8.658;2022-07-24T06:29:47;100210.28;;;28.73;39.48
8637;BME280;4356;49.068;8.658;2022-07-24T06:32:12;100213.34;;;28.71;39.10
8637;BME280;4356;49.068;8.658;2022-07-24T06:34:37;100215.25;;;28.76;39.20
8637;BME280;4356;49.068;8.658;2022-07-24T06:37:03;100217.47;;;28.79;39.34
8637;BME280;4356;49.068;8.658;2022-07-24T06:39:28;100217.16;;;28.80;39.31
8637;BME280;4356;49.068;8.658;2022-07-24T06:41:54;100222.41;;;28.82;39.22
8637;BME280;4356;49.068;8.658;2022-07-24T06:44:19;100213.00;;;28.83;38.92
8637;BME280;4356;49.068;8.658;2022-07-24T06:46:45;100220.75;;;28.86;39.07
8637;BME280;4356;49.068;8.658;2022-07-24T06:49:10;100224.88;;;28.88;39.22
8637;BME280;4356;49.068;8.658;2022-07-24T06:51:35;100219.91;;;28.85;38.71
8637;BME280;4356;49.068;8.658;2022-07-24T06:54:01;100219.34;;;28.83;38.81
8637;BME280;4356;49.068;8.658;2022-07-24T06:56:26;100230.41;;;28.88;39.05
8637;BME280;4356;49.068;8.658;2022-07-24T06:58:52;100224.56;;;28.90;39.08
8637;BME280;4356;49.068;8.658;2022-07-24T07:01:17;100227.34;;;28.90;39.23
8637;BME280;4356;49.068;8.658;2022-07-24T07:03:42;100220.16;;;28.89;39.19
8637;BME280;4356;49.068;8.658;2022-07-24T07:06:08;100225.69;;;28.94;39.21
8637;BME280;4356;49.068;8.658;2022-07-24T07:08:33;100213.00;;;28.88;39.16
8637;BME280;4356;49.068;8.658;2022-07-24T07:10:59;100220.97;;;28.94;39.06
8637;BME280;4356;49.068;8.658;2022-07-24T07:13:24;100222.91;;;28.99;38.90
8637;BME280;4356;49.068;8.658;2022-07-24T07:15:50;100227.56;;;29.03;38.93
8637;BME280;4356;49.068;8.658;2022-07-24T07:18:15;100227.56;;;29.03;38.77
8637;BME280;4356;49.068;8.658;2022-07-24T07:20:41;100231.16;;;29.09;39.00
8637;BME280;4356;49.068;8.658;2022-07-24T07:23:06;100222.00;;;29.08;38.64
8637;BME280;4356;49.068;8.658;2022-07-24T07:25:32;100223.44;;;29.11;38.63
8637;BME280;4356;49.068;8.658;2022-07-24T07:27:57;100217.31;;;29.14;38.69
8637;BME280;4356;49.068;8.658;2022-07-24T07:30:23;100214.25;;;29.15;38.58
8637;BME280;4356;49.068;8.658;2022-07-24T07:32:48;100211.22;;;29.17;38.39
8637;BME280;4356;49.068;8.658;2022-07-24T07:35:13;100213.97;;;29.22;38.24
8637;BME280;4356;49.068;8.658;2022-07-24T07:37:39;100204.28;;;29.19;38.13
8637;BME280;4356;49.068;8.658;2022-07-24T07:40:05;100211.75;;;29.24;38.24
8637;BME280;4356;49.068;8.658;2022-07-24T07:42:31;100214.47;;;29.29;37.87
8637;BME280;4356;49.068;8.658;2022-07-24T07:44:56;100211.41;;;29.30;38.22
8637;BME280;4356;49.068;8.658;2022-07-24T07:47:22;100209.72;;;29.34;37.90
8637;BME280;4356;49.068;8.658;2022-07-24T07:49:47;100203.34;;;29.34;37.75
8637;BME280;4356;49.068;8.658;2022-07-24T07:52:13;100212.72;;;29.43;37.73
8637;BME280;4356;49.068;8.658;2022-07-24T07:54:38;100187.03;;;29.32;37.89
8637;BME280;4356;49.068;8.658;2022-07-24T07:57:04;100209.34;;;29.46;37.71
8637;BME280;4356;49.068;8.658;2022-07-24T07:59:29;100199.41;;;29.45;38.01
8637;BME280;4356;49.068;8.658;2022-07-24T08:01:55;100178.97;;;29.36;37.94
8637;BME280;4356;49.068;8.658;2022-07-24T08:04:20;100199.06;;;29.52;37.95
8637;BME280;4356;49.068;8.658;2022-07-24T08:06:45;100197.38;;;29.56;37.57
8637;BME280;4356;49.068;8.658;2022-07-24T08:09:11;100202.09;;;29.60;37.97
8637;BME280;4356;49.068;8.658;2022-07-24T08:11:36;100194.06;;;29.59;37.51
8637;BME280;4356;49.068;8.658;2022-07-24T08:14:02;100201.75;;;29.67;37.36
8637;BME280;4356;49.068;8.658;2022-07-24T08:16:27;100194.28;;;29.67;37.52
8637;BME280;4356;49.068;8.658;2022-07-24T08:18:52;100188.47;;;29.64;37.11
8637;BME280;4356;49.068;8.658;2022-07-24T08:21:18;100195.38;;;29.71;37.48
8637;BME280;4356;49.068;8.658;2022-07-24T08:23:44;100203.34;;;29.78;37.14
8637;BME280;4356;49.068;8.658;2022-07-24T08:26:11;100201.97;;;29.80;36.97
8637;BME280;4356;49.068;8.658;2022-07-24T08:28:37;100196.13;;;29.82;37.22
8637;BME280;4356;49.068;8.658;2022-07-24T08:31:02;100196.94;;;29.82;37.23
8637;BME280;4356;49.068;8.658;2022-07-24T08:33:28;100197.72;;;29.88;37.10
8637;BME280;4356;49.068;8.658;2022-07-24T08:35:53;100198.25;;;29.90;36.99
8637;BME280;4356;49.068;8.658;2022-07-24T08:38:19;100196.25;;;29.95;36.67
8637;BME280;4356;49.068;8.658;2022-07-24T08:40:45;100205.66;;;29.99;37.07
8637;BME280;4356;49.068;8.658;2022-07-24T08:43:11;100198.97;;;30.00;36.84
8637;BME280;4356;49.068;8.658;2022-07-24T08:45:41;100201.19;;;30.03;36.93
8637;BME280;4356;49.068;8.658;2022-07-24T08:48:09;100188.97;;;30.04;36.76
8637;BME280;4356;49.068;8.658;2022-07-24T08:50:37;100189.47;;;30.11;36.79
8637;BME280;4356;49.068;8.658;2022-07-24T08:53:03;100196.66;;;30.12;36.27
8637;BME280;4356;49.068;8.658;2022-07-24T08:55:29;100196.38;;;30.14;36.48
8637;BME280;4356;49.068;8.658;2022-07-24T08:57:57;100193.25;;;30.20;36.36
8637;BME280;4356;49.068;8.658;2022-07-24T09:00:27;100195.22;;;30.20;36.24
8637;BME280;4356;49.068;8.658;2022-07-24T09:02:53;100197.66;;;30.26;36.21
8637;BME280;4356;49.068;8.658;2022-07-24T09:05:19;100187.13;;;30.23;36.41
8637;BME280;4356;49.068;8.658;2022-07-24T09:07:45;100183.81;;;30.26;36.44
8637;BME280;4356;49.068;8.658;2022-07-24T09:10:15;100201.44;;;30.35;36.10
8637;BME280;4356;49.068;8.658;2022-07-24T09:12:46;100190.59;;;30.39;35.67
8637;BME280;4356;49.068;8.658;2022-07-24T09:15:17;100194.13;;;30.45;35.97
8637;BME280;4356;49.068;8.658;2022-07-24T09:17:54;100184.19;;;30.44;35.42
8637;BME280;4356;49.068;8.658;2022-07-24T09:20:22;100185.22;;;30.48;35.63
8637;BME280;4356;49.068;8.658;2022-07-24T09:22:49;100170.31;;;30.44;35.14
8637;BME280;4356;49.068;8.658;2022-07-24T09:25:26;100188.72;;;30.58;35.04
8637;BME280;4356;49.068;8.658;2022-07-24T09:27:56;100188.97;;;30.62;34.96
8637;BME280;4356;49.068;8.658;2022-07-24T09:35:39;100195.22;;;30.72;34.79
8637;BME280;4356;49.068;8.658;2022-07-24T09:38:10;100182.97;;;30.73;34.78
8637;BME280;4356;49.068;8.658;2022-07-24T09:40:55;100175.72;;;30.77;34.38
8637;BME280;4356;49.068;8.658;2022-07-24T09:43:23;100192.03;;;30.84;34.49
8637;BME280;4356;49.068;8.658;2022-07-24T09:45:56;100174.81;;;30.87;34.20
8637;BME280;4356;49.068;8.658;2022-07-24T09:48:31;100172.03;;;30.87;34.04
8637;BME280;4356;49.068;8.658;2022-07-24T09:51:17;100175.25;;;30.94;34.40
8637;BME280;4356;49.068;8.658;2022-07-24T09:53:51;100170.78;;;30.98;34.68
8637;BME280;4356;49.068;8.658;2022-07-24T09:56:18;100167.38;;;31.01;34.31
8637;BME280;4356;49.068;8.658;2022-07-24T10:01:16;100164.84;;;31.04;33.99
8637;BME280;4356;49.068;8.658;2022-07-24T10:03:45;100168.38;;;31.10;33.77
8637;BME280;4356;49.068;8.658;2022-07-24T10:06:13;100174.16;;;31.13;34.03
8637;BME280;4356;49.068;8.658;2022-07-24T10:08:41;100171.59;;;31.17;33.75
8637;BME280;4356;49.068;8.658;2022-07-24T10:11:08;100172.66;;;31.21;33.89
8637;BME280;4356;49.068;8.658;2022-07-24T10:13:34;100170.94;;;31.25;33.66
8637;BME280;4356;49.068;8.658;2022-07-24T10:21:08;100160.81;;;31.34;33.48
8637;BME280;4356;49.068;8.658;2022-07-24T10:26:47;100155.72;;;31.41;33.58
8637;BME280;4356;49.068;8.658;2022-07-24T10:29:18;100157.88;;;31.44;33.51
8637;BME280;4356;49.068;8.658;2022-07-24T10:31:46;100152.03;;;31.46;33.26
8637;BME280;4356;49.068;8.658;2022-07-24T10:34:31;100152.25;;;31.49;32.74
8637;BME280;4356;49.068;8.658;2022-07-24T10:43:08;100145.09;;;31.62;32.26
8637;BME280;4356;49.068;8.658;2022-07-24T10:51:01;100141.63;;;31.70;31.56
8637;BME280;4356;49.068;8.658;2022-07-24T10:56:37;100143.19;;;31.76;31.71
8637;BME280;4356;49.068;8.658;2022-07-24T10:59:08;100136.50;;;31.77;31.97
8637;BME280;4356;49.068;8.658;2022-07-24T11:01:41;100136.41;;;31.82;31.49
8637;BME280;4356;49.068;8.658;2022-07-24T11:06:45;100132.13;;;31.89;32.19
8637;BME280;4356;49.068;8.658;2022-07-24T11:09:12;100128.75;;;31.92;32.69
8637;BME280;4356;49.068;8.658;2022-07-24T11:14:47;100137.22;;;32.01;32.46
8637;BME280;4356;49.068;8.658;2022-07-24T11:17:36;100119.38;;;32.02;32.20
8637;BME280;4356;49.068;8.658;2022-07-24T11:20:04;100120.13;;;32.07;32.20
8637;BME280;4356;49.068;8.658;2022-07-24T11:22:40;100119.22;;;32.12;32.06
8637;BME280;4356;49.068;8.658;2022-07-24T11:25:13;100115.81;;;32.15;31.75
8637;BME280;4356;49.068;8.658;2022-07-24T11:27:47;100103.06;;;32.14;31.40
8637;BME280;4356;49.068;8.658;2022-07-24T11:30:14;100106.34;;;32.16;32.36
8637;BME280;4356;49.068;8.658;2022-07-24T11:32:41;100112.84;;;32.25;32.31
8637;BME280;4356;49.068;8.658;2022-07-24T11:35:07;100106.13;;;32.26;31.80
8637;BME280;4356;49.068;8.658;2022-07-24T11:37:35;100108.81;;;32.31;31.54
8637;BME280;4356;49.068;8.658;2022-07-24T11:40:02;100103.75;;;32.33;31.68
8637;BME280;4356;49.068;8.658;2022-07-24T11:42:29;100101.50;;;32.35;31.50
8637;BME280;4356;49.068;8.658;2022-07-24T11:44:54;100092.22;;;32.40;31.63
8637;BME280;4356;49.068;8.658;2022-07-24T11:47:23;100085.34;;;32.37;31.70
8637;BME280;4356;49.068;8.658;2022-07-24T11:49:57;100092.69;;;32.47;31.11
8637;BME280;4356;49.068;8.658;2022-07-24T11:55:01;100085.53;;;32.54;31.02
8637;BME280;4356;49.068;8.658;2022-07-24T11:57:32;100076.06;;;32.55;30.73
8637;BME280;4356;49.068;8.658;2022-07-24T11:59:58;100075.13;;;32.60;31.47
8637;BME280;4356;49.068;8.658;2022-07-24T12:02:25;100070.06;;;32.62;31.00
8637;BME280;4356;49.068;8.658;2022-07-24T12:04:50;100065.34;;;32.62;31.13
8637;BME280;4356;49.068;8.658;2022-07-24T12:07:23;100064.09;;;32.68;30.91
8637;BME280;4356;49.068;8.658;2022-07-24T12:09:51;100061.84;;;32.70;30.98
8637;BME280;4356;49.068;8.658;2022-07-24T12:12:29;100055.63;;;32.73;31.26
8637;BME280;4356;49.068;8.658;2022-07-24T12:15:11;100047.59;;;32.72;31.38
8637;BME280;4356;49.068;8.658;2022-07-24T12:20:34;100048.00;;;32.79;31.77
8637;BME280;4356;49.068;8.658;2022-07-24T12:23:01;100040.03;;;32.86;31.04
8637;BME280;4356;49.068;8.658;2022-07-24T12:25:28;100043.31;;;32.88;30.87
8637;BME280;4356;49.068;8.658;2022-07-24T12:30:34;100036.53;;;32.94;31.26
8637;BME280;4356;49.068;8.658;2022-07-24T12:36:05;100036.41;;;32.99;30.54
8637;BME280;4356;49.068;8.658;2022-07-24T12:38:36;100026.06;;;32.99;30.92
8637;BME280;4356;49.068;8.658;2022-07-24T12:41:10;100016.59;;;33.00;30.65
8637;BME280;4356;49.068;8.658;2022-07-24T12:44:05;100022.88;;;33.06;30.50
8637;BME280;4356;49.068;8.658;2022-07-24T12:46:35;100015.03;;;33.08;30.95
8637;BME280;4356;49.068;8.658;2022-07-24T12:51:43;100016.03;;;33.12;31.09
8637;BME280;4356;49.068;8.658;2022-07-24T12:54:14;99997.03;;;33.14;30.78
8637;BME280;4356;49.068;8.658;2022-07-24T12:56:44;100002.91;;;33.12;30.91
8637;BME280;4356;49.068;8.658;2022-07-24T12:59:21;99992.16;;;33.19;30.53
8637;BME280;4356;49.068;8.658;2022-07-24T13:01:51;99997.91;;;33.23;30.02
8637;BME280;4356;49.068;8.658;2022-07-24T13:04:19;99992.84;;;33.25;30.45
8637;BME280;4356;49.068;8.658;2022-07-24T13:06:47;99988.63;;;33.27;30.29
8637;BME280;4356;49.068;8.658;2022-07-24T13:09:14;99991.25;;;33.33;30.19
8637;BME280;4356;49.068;8.658;2022-07-24T13:11:42;99991.75;;;33.35;30.13
8637;BME280;4356;49.068;8.658;2022-07-24T13:14:09;99987.53;;;33.37;30.16
8637;BME280;4356;49.068;8.658;2022-07-24T13:16:37;99976.50;;;33.32;29.92
8637;BME280;4356;49.068;8.658;2022-07-24T13:19:03;99979.03;;;33.42;30.15
8637;BME280;4356;49.068;8.658;2022-07-24T13:21:33;99979.53;;;33.44;30.19
8637;BME280;4356;49.068;8.658;2022-07-24T13:23:59;99980.41;;;33.45;30.20
8637;BME280;4356;49.068;8.658;2022-07-24T13:26:25;99970.06;;;33.45;29.88
8637;BME280;4356;49.068;8.658;2022-07-24T13:28:50;99960.56;;;33.46;29.85
8637;BME280;4356;49.068;8.658;2022-07-24T13:31:16;99970.13;;;33.54;29.72
8637;BME280;4356;49.068;8.658;2022-07-24T13:33:45;99960.09;;;33.53;30.19
8637;BME280;4356;49.068;8.658;2022-07-24T13:36:11;99964.22;;;33.55;30.23
8637;BME280;4356;49.068;8.658;2022-07-24T13:38:37;99951.59;;;33.58;29.94
8637;BME280;4356;49.068;8.658;2022-07-24T13:41:02;99952.94;;;33.60;30.24
8637;BME280;4356;49.068;8.658;2022-07-24T13:43:28;99947.84;;;33.62;30.03
8637;BME280;4356;49.068;8.658;2022-07-24T13:45:53;99957.22;;;33.66;30.43
8637;BME280;4356;49.068;8.658;2022-07-24T13:48:18;99942.97;;;33.68;29.82
8637;BME280;4356;49.068;8.658;2022-07-24T13:50:44;99943.13;;;33.71;29.80
8637;BME280;4356;49.068;8.658;2022-07-24T13:53:09;99932.63;;;33.68;29.78
8637;BME280;4356;49.068;8.658;2022-07-24T13:55:35;99935.78;;;33.75;30.19
8637;BME280;4356;49.068;8.658;2022-07-24T13:58:01;99929.72;;;33.73;30.32
8637;BME280;4356;49.068;8.658;2022-07-24T14:00:26;99928.38;;;33.79;29.93